createdAt,value
2023-05-02T00:00:45.683Z,63.69
2023-05-02T00:03:17.598Z,63.80
2023-05-02T00:05:45.829Z,63.92
2023-05-02T00:08:13.650Z,63.61
2023-05-02T00:10:41.369Z,63.55
2023-05-02T00:13:09.207Z,62.98
2023-05-02T00:15:37.068Z,63.50
2023-05-02T00:18:04.957Z,62.73
2023-05-02T00:20:33.223Z,62.90
2023-05-02T00:23:01.065Z,63.03
2023-05-02T00:25:29.262Z,62.85
2023-05-02T00:27:57.109Z,62.51
2023-05-02T00:30:24.990Z,63.27
2023-05-02T00:32:54.474Z,63.62
2023-05-02T00:35:22.359Z,63.20
2023-05-02T00:37:50.332Z,63.55
2023-05-02T00:40:18.402Z,63.13
2023-05-02T00:42:46.167Z,62.56
2023-05-02T00:45:14.261Z,63.23
2023-05-02T00:47:42.258Z,63.10
2023-05-02T00:50:10.911Z,63.62
2023-05-02T00:52:38.748Z,63.40
2023-05-02T00:55:07.113Z,63.04
2023-05-02T00:57:34.998Z,62.79
2023-05-02T01:00:04.912Z,63.33
2023-05-02T01:02:43.724Z,63.48
2023-05-02T01:05:18.117Z,63.59
2023-05-02T01:07:46.005Z,62.97
2023-05-02T01:10:48.387Z,63.15
2023-05-02T01:13:26.494Z,62.89
2023-05-02T01:15:58.513Z,63.07
2023-05-02T01:18:30.725Z,62.80
2023-05-02T01:21:03.302Z,62.88
2023-05-02T01:24:02.913Z,63.09
2023-05-02T01:26:55.159Z,63.28
2023-05-02T01:29:24.146Z,63.03
2023-05-02T01:31:52.646Z,62.85
2023-05-02T01:34:22.442Z,63.19
2023-05-02T01:36:52.143Z,63.42
2023-05-02T01:39:23.084Z,63.16
2023-05-02T01:41:53.649Z,62.66
2023-05-02T01:44:23.731Z,62.72
2023-05-02T01:46:55.142Z,63.04
2023-05-02T01:49:25.608Z,62.80
2023-05-02T01:51:53.917Z,63.04
2023-05-02T01:54:24.819Z,62.99
2023-05-02T01:56:53.145Z,62.99
2023-05-02T01:59:23.935Z,63.20
2023-05-02T02:01:52.752Z,63.20
2023-05-02T02:04:22.413Z,63.72
2023-05-02T02:07:02.710Z,63.65
2023-05-02T02:09:31.773Z,63.92
2023-05-02T02:12:03.945Z,63.46
2023-05-02T02:14:35.492Z,63.25
2023-05-02T02:17:10.349Z,63.74
2023-05-02T02:19:40.884Z,64.06
2023-05-02T02:22:09.851Z,63.68
2023-05-02T02:24:40.428Z,63.66
2023-05-02T02:27:08.143Z,63.66
2023-05-02T02:29:36.106Z,64.15
2023-05-02T02:32:04.005Z,64.39
2023-05-02T02:34:32.048Z,64.47
2023-05-02T02:37:11.686Z,63.68
2023-05-02T02:39:55.946Z,63.72
2023-05-02T02:43:03.422Z,64.28
2023-05-02T02:45:50.064Z,64.33
2023-05-02T02:48:43.596Z,64.05
2023-05-02T02:51:16.215Z,63.67
2023-05-02T02:54:01.241Z,63.44
2023-05-02T02:56:39.555Z,63.81
2023-05-02T02:59:23.389Z,63.44
2023-05-02T03:02:00.317Z,63.29
2023-05-02T03:04:32.225Z,63.01
2023-05-02T03:07:00.949Z,62.97
2023-05-02T03:09:33.798Z,63.47
2023-05-02T03:12:01.663Z,63.42
2023-05-02T03:14:29.523Z,63.27
2023-05-02T03:16:57.906Z,63.19
2023-05-02T03:19:25.766Z,64.01
2023-05-02T03:21:53.939Z,63.85
2023-05-02T03:24:22.142Z,64.00
2023-05-02T03:26:50.421Z,64.21
2023-05-02T03:29:18.291Z,64.05
2023-05-02T03:31:46.125Z,64.14
2023-05-02T03:34:14.037Z,64.80
2023-05-02T03:36:41.898Z,64.48
2023-05-02T03:39:09.745Z,64.48
2023-05-02T03:41:37.464Z,64.12
2023-05-02T03:44:05.784Z,64.37
2023-05-02T03:46:33.728Z,64.57
2023-05-02T03:49:01.630Z,64.03
2023-05-02T03:51:29.388Z,64.27
2023-05-02T03:53:57.449Z,64.21
2023-05-02T03:56:25.259Z,64.16
2023-05-02T03:58:53.286Z,64.31
2023-05-02T04:01:21.076Z,64.22
2023-05-02T04:03:48.905Z,64.48
2023-05-02T04:06:16.915Z,64.45
2023-05-02T04:08:44.700Z,64.57
2023-05-02T04:11:12.620Z,64.69
2023-05-02T04:13:40.480Z,64.31
2023-05-02T04:16:09.496Z,64.68
2023-05-02T04:18:37.296Z,65.05
2023-05-02T04:21:09.650Z,64.93
2023-05-02T04:23:37.568Z,64.87
2023-05-02T04:26:06.061Z,64.45
2023-05-02T04:28:35.766Z,64.54
2023-05-02T04:31:04.403Z,64.35
2023-05-02T04:33:32.412Z,64.70
2023-05-02T04:36:00.790Z,64.80
2023-05-02T04:38:28.768Z,64.24
2023-05-02T04:40:56.625Z,64.45
2023-05-02T04:43:24.863Z,64.14
2023-05-02T04:45:53.092Z,64.32
2023-05-02T04:48:21.765Z,64.11
2023-05-02T04:50:49.931Z,64.47
2023-05-02T04:53:17.689Z,64.39
2023-05-02T04:55:45.564Z,63.98
2023-05-02T04:58:13.322Z,64.63
2023-05-02T05:00:41.285Z,63.90
2023-05-02T05:03:09.246Z,64.26
2023-05-02T05:05:37.365Z,64.40
2023-05-02T05:08:05.191Z,63.99
2023-05-02T05:10:33.168Z,63.77
2023-05-02T05:13:00.924Z,63.44
2023-05-02T05:15:28.734Z,63.23
2023-05-02T05:17:56.496Z,63.43
2023-05-02T05:20:24.522Z,62.73
2023-05-02T05:22:52.374Z,62.60
2023-05-02T05:25:20.266Z,62.76
2023-05-02T05:27:48.133Z,63.00
2023-05-02T05:30:16.001Z,62.63
2023-05-02T05:32:44.071Z,62.35
2023-05-02T05:35:12.154Z,61.97
2023-05-02T05:37:40.108Z,61.70
2023-05-02T05:40:09.135Z,61.90
2023-05-02T05:42:36.904Z,62.06
2023-05-02T05:45:04.969Z,61.74
2023-05-02T05:47:32.907Z,62.09
2023-05-02T05:50:01.618Z,61.52
2023-05-02T05:52:30.038Z,61.14
2023-05-02T05:54:57.829Z,60.49
2023-05-02T05:57:25.938Z,60.65
2023-05-02T05:59:53.723Z,60.28
2023-05-02T06:02:21.702Z,59.80
2023-05-02T06:04:49.533Z,59.50
2023-05-02T06:07:17.294Z,59.20
2023-05-02T06:09:45.073Z,59.31
2023-05-02T06:12:12.793Z,58.45
2023-05-02T06:14:41.207Z,58.09
2023-05-02T06:17:08.992Z,57.69
2023-05-02T06:19:36.792Z,57.57
2023-05-02T06:22:04.761Z,57.51
2023-05-02T06:24:32.637Z,57.08
2023-05-02T06:27:00.491Z,56.93
2023-05-02T06:29:28.361Z,56.61
2023-05-02T06:31:57.290Z,56.21
2023-05-02T06:34:25.726Z,56.07
2023-05-02T06:36:56.933Z,55.55
2023-05-02T06:39:24.832Z,55.36
2023-05-02T06:42:00.386Z,55.37
2023-05-02T06:44:28.184Z,54.73
2023-05-02T06:46:56.344Z,54.26
2023-05-02T06:49:24.347Z,54.53
2023-05-02T06:51:52.474Z,54.33
2023-05-02T06:54:21.953Z,53.37
2023-05-02T06:56:50.029Z,53.39
2023-05-02T06:59:17.891Z,53.48
2023-05-02T07:01:45.757Z,52.64
2023-05-02T07:04:13.735Z,51.56
2023-05-02T07:06:41.740Z,51.25
2023-05-02T07:09:09.765Z,49.99
2023-05-02T07:11:37.630Z,51.04
2023-05-02T07:14:05.613Z,50.57
2023-05-02T07:16:33.449Z,50.73
2023-05-02T07:19:01.839Z,50.04
2023-05-02T07:21:29.834Z,50.43
2023-05-02T07:23:57.877Z,49.95
2023-05-02T07:26:27.838Z,50.44
2023-05-02T07:28:55.868Z,50.40
2023-05-02T07:31:23.774Z,49.86
2023-05-02T07:33:51.669Z,49.79
2023-05-02T07:36:19.459Z,50.21
2023-05-02T07:38:47.235Z,50.04
2023-05-02T07:41:15.092Z,50.51
2023-05-02T07:43:43.094Z,50.58
2023-05-02T07:46:11.200Z,50.26
2023-05-02T07:48:39.464Z,49.99
2023-05-02T07:51:09.423Z,49.86
2023-05-02T07:53:37.392Z,49.70
2023-05-02T07:56:07.062Z,50.62
2023-05-02T07:58:37.397Z,50.79
2023-05-02T08:01:05.513Z,50.72
2023-05-02T08:03:33.659Z,50.62
2023-05-02T08:06:02.448Z,50.82
2023-05-02T08:08:30.532Z,49.64
2023-05-02T08:10:58.348Z,50.36
2023-05-02T08:13:27.284Z,50.24
2023-05-02T08:15:58.617Z,50.66
2023-05-02T08:18:27.313Z,51.02
2023-05-02T08:21:00.735Z,50.43
2023-05-02T08:23:28.674Z,50.34
2023-05-02T08:25:56.588Z,50.64
2023-05-02T08:28:24.369Z,50.53
2023-05-02T08:30:52.081Z,49.93
2023-05-02T08:33:20.104Z,49.95
2023-05-02T08:35:48.582Z,49.86
2023-05-02T08:38:16.298Z,49.96
2023-05-02T08:40:44.189Z,49.37
2023-05-02T08:43:13.056Z,49.06
2023-05-02T08:45:43.412Z,48.66
2023-05-02T08:48:13.764Z,49.54
2023-05-02T08:50:45.744Z,49.84
2023-05-02T08:53:14.562Z,49.86
2023-05-02T08:55:43.195Z,50.39
2023-05-02T08:58:13.852Z,49.58
2023-05-02T09:00:43.296Z,49.44
2023-05-02T09:03:31.912Z,49.32
2023-05-02T09:06:15.100Z,48.45
2023-05-02T09:08:44.973Z,48.09
2023-05-02T09:11:13.674Z,47.41
2023-05-02T09:13:46.818Z,47.17
2023-05-02T09:16:18.242Z,47.59
2023-05-02T09:18:47.729Z,48.09
2023-05-02T09:21:21.506Z,49.05
2023-05-02T09:23:54.809Z,48.83
2023-05-02T09:26:28.857Z,49.18
2023-05-02T09:28:58.572Z,48.68
2023-05-02T09:31:49.915Z,49.13
2023-05-02T09:34:18.646Z,48.96
2023-05-02T09:36:48.256Z,49.80
2023-05-02T09:39:19.031Z,49.81
2023-05-02T09:41:48.000Z,49.73
2023-05-02T09:44:21.227Z,50.20
2023-05-02T09:46:53.014Z,50.39
2023-05-02T09:49:39.076Z,50.50
2023-05-02T09:52:11.885Z,50.25
2023-05-02T09:54:39.628Z,49.89
2023-05-02T09:57:07.729Z,49.14
2023-05-02T09:59:35.577Z,48.86
2023-05-02T10:02:04.983Z,49.30
2023-05-02T10:04:34.191Z,48.82
2023-05-02T10:07:03.424Z,49.21
2023-05-02T10:09:33.092Z,49.48
2023-05-02T10:12:08.472Z,49.50
2023-05-02T10:14:45.862Z,50.00
2023-05-02T10:17:21.652Z,50.75
2023-05-02T10:20:10.170Z,51.08
2023-05-02T10:22:38.853Z,51.65
2023-05-02T10:25:06.992Z,51.23
2023-05-02T10:27:34.865Z,51.45
2023-05-02T10:30:04.890Z,51.93
2023-05-02T10:32:38.165Z,52.62
2023-05-02T10:35:08.125Z,53.15
2023-05-02T10:37:38.941Z,53.42
2023-05-02T10:40:10.507Z,53.80
2023-05-02T10:42:42.252Z,54.25
2023-05-02T10:45:31.000Z,54.75
2023-05-02T10:48:18.231Z,55.59
2023-05-02T10:50:56.909Z,56.88
2023-05-02T10:53:39.757Z,58.23
2023-05-02T10:56:21.945Z,60.20
2023-05-02T10:58:52.180Z,60.91
2023-05-02T11:01:26.600Z,61.50
2023-05-02T11:04:07.980Z,62.33
2023-05-02T11:06:37.869Z,63.41
2023-05-02T11:09:18.913Z,63.15
2023-05-02T11:11:48.571Z,63.74
2023-05-02T11:14:32.532Z,63.94
2023-05-02T11:17:09.418Z,63.36
2023-05-02T11:19:46.479Z,62.92
2023-05-02T11:22:20.842Z,62.14
2023-05-02T11:24:49.532Z,60.88
2023-05-02T11:27:29.673Z,60.70
2023-05-02T11:29:57.803Z,59.13
2023-05-02T11:32:46.943Z,57.75
2023-05-02T11:35:18.722Z,57.21
2023-05-02T11:38:03.565Z,57.49
2023-05-02T11:40:32.525Z,57.86
2023-05-02T11:43:01.524Z,57.77
2023-05-02T11:45:37.142Z,57.69
2023-05-02T11:48:07.126Z,57.51
2023-05-02T11:50:50.515Z,57.43
2023-05-02T11:53:22.676Z,57.62
2023-05-02T11:55:54.736Z,57.44
2023-05-02T11:58:25.684Z,56.48
2023-05-02T12:00:53.874Z,56.64
2023-05-02T12:03:32.774Z,56.62
2023-05-02T12:06:16.038Z,55.39
2023-05-02T12:08:44.927Z,55.36
2023-05-02T12:11:17.324Z,54.93
2023-05-02T12:13:50.075Z,54.21
2023-05-02T12:16:19.347Z,54.22
2023-05-02T12:18:48.463Z,54.52
2023-05-02T12:21:17.437Z,53.24
2023-05-02T12:23:45.689Z,53.52
2023-05-02T12:26:22.730Z,52.48
2023-05-02T12:28:57.361Z,52.80
2023-05-02T12:31:26.850Z,52.28
2023-05-02T12:33:57.812Z,52.36
2023-05-02T12:36:28.757Z,52.61
2023-05-02T12:39:02.860Z,53.27
2023-05-02T12:41:35.938Z,53.73
2023-05-02T12:44:05.187Z,54.00
2023-05-02T12:46:33.179Z,54.50
2023-05-02T12:49:09.875Z,54.47
2023-05-02T12:51:41.314Z,54.82
2023-05-02T12:54:19.976Z,54.62
2023-05-02T12:56:49.087Z,54.43
2023-05-02T12:59:33.553Z,54.47
2023-05-02T13:02:01.313Z,54.37
2023-05-02T13:04:40.857Z,54.53
2023-05-02T13:07:08.760Z,54.31
2023-05-02T13:09:37.556Z,54.14
2023-05-02T13:12:06.170Z,54.23
2023-05-02T13:14:34.009Z,53.14
2023-05-02T13:17:01.895Z,52.79
2023-05-02T13:19:31.602Z,52.84
2023-05-02T13:21:59.644Z,53.18
2023-05-02T13:24:27.568Z,51.50
2023-05-02T13:26:55.578Z,50.22
2023-05-02T13:29:23.753Z,49.36
2023-05-02T13:31:51.613Z,50.36
2023-05-02T13:34:19.391Z,49.43
2023-05-02T13:36:47.150Z,49.35
2023-05-02T13:39:15.106Z,49.01
2023-05-02T13:41:42.987Z,47.00
2023-05-02T13:44:10.839Z,46.85
2023-05-02T13:46:39.098Z,47.25
2023-05-02T13:49:07.416Z,48.28
2023-05-02T13:51:35.676Z,48.50
2023-05-02T13:54:03.635Z,48.45
2023-05-02T13:56:31.458Z,48.60
2023-05-02T13:58:59.263Z,48.57
2023-05-02T14:01:28.452Z,48.52
2023-05-02T14:03:56.744Z,46.33
2023-05-02T14:06:24.984Z,46.17
2023-05-02T14:08:52.898Z,46.41
2023-05-02T14:11:20.760Z,47.15
2023-05-02T14:13:48.713Z,46.81
2023-05-02T14:16:16.609Z,46.57
2023-05-02T14:18:50.219Z,45.12
2023-05-02T14:21:17.977Z,46.46
2023-05-02T14:23:45.907Z,46.49
2023-05-02T14:26:14.589Z,47.42
2023-05-02T14:28:42.350Z,46.89
2023-05-02T14:31:10.260Z,47.02
2023-05-02T14:33:38.188Z,48.09
2023-05-02T14:36:06.037Z,47.30
2023-05-02T14:38:34.000Z,48.35
2023-05-02T14:41:03.323Z,47.99
2023-05-02T14:43:31.504Z,48.13
2023-05-02T14:45:59.296Z,47.85
2023-05-02T14:48:27.334Z,47.59
2023-05-02T14:50:55.182Z,47.73
2023-05-02T14:53:22.955Z,47.89
2023-05-02T14:55:50.922Z,48.42
2023-05-02T14:58:20.852Z,48.70
2023-05-02T15:00:49.085Z,48.39
2023-05-02T15:03:17.189Z,48.59
2023-05-02T15:05:45.518Z,48.01
2023-05-02T15:08:13.435Z,47.62
2023-05-02T15:10:41.401Z,47.40
2023-05-02T15:13:09.283Z,48.57
2023-05-02T15:15:37.698Z,48.36
2023-05-02T15:18:06.043Z,48.04
2023-05-02T15:20:33.992Z,48.91
2023-05-02T15:23:03.735Z,48.79
2023-05-02T15:25:31.850Z,48.30
2023-05-02T15:28:00.095Z,48.86
2023-05-02T15:30:27.902Z,48.86
2023-05-02T15:32:58.176Z,48.83
2023-05-02T15:35:25.988Z,48.39
2023-05-02T15:37:53.818Z,48.90
2023-05-02T15:40:26.543Z,49.34
2023-05-02T15:42:55.294Z,48.82
2023-05-02T15:45:24.010Z,48.98
2023-05-02T15:47:54.685Z,48.93
2023-05-02T15:50:22.666Z,49.25
2023-05-02T15:52:51.158Z,49.21
2023-05-02T15:55:19.594Z,49.53
2023-05-02T15:57:52.048Z,49.05
2023-05-02T16:00:20.243Z,49.11
2023-05-02T16:02:48.530Z,49.00
2023-05-02T16:05:16.556Z,48.78
2023-05-02T16:07:44.320Z,48.95
2023-05-02T16:10:12.381Z,49.20
2023-05-02T16:12:40.160Z,49.59
2023-05-02T16:15:08.828Z,49.30
2023-05-02T16:17:36.623Z,49.16
2023-05-02T16:20:05.961Z,49.28
2023-05-02T16:22:33.992Z,49.32
2023-05-02T16:25:01.762Z,49.39
2023-05-02T16:27:29.591Z,49.86
2023-05-02T16:30:01.833Z,50.27
2023-05-02T16:32:30.064Z,50.58
2023-05-02T16:35:00.048Z,50.69
2023-05-02T16:37:27.924Z,50.77
2023-05-02T16:39:57.603Z,50.99
2023-05-02T16:42:25.596Z,51.17
2023-05-02T16:44:53.461Z,51.39
2023-05-02T16:47:21.642Z,51.50
2023-05-02T16:49:54.747Z,51.75
2023-05-02T16:52:23.187Z,52.01
2023-05-02T16:54:51.890Z,52.48
2023-05-02T16:57:21.147Z,52.52
2023-05-02T16:59:51.381Z,52.72
2023-05-02T17:02:22.209Z,53.37
2023-05-02T17:04:50.567Z,53.76
2023-05-02T17:07:18.320Z,53.34
2023-05-02T17:09:46.097Z,53.84
2023-05-02T17:12:15.436Z,54.13
2023-05-02T17:14:43.718Z,54.31
2023-05-02T17:17:12.464Z,53.94
2023-05-02T17:19:44.336Z,54.04
2023-05-02T17:22:13.009Z,54.26
2023-05-02T17:24:42.398Z,54.48
2023-05-02T17:27:11.535Z,55.33
2023-05-02T17:29:39.344Z,55.64
2023-05-02T17:32:07.141Z,56.17
2023-05-02T17:34:36.881Z,56.45
2023-05-02T17:37:04.752Z,57.11
2023-05-02T17:39:32.639Z,56.93
2023-05-02T17:42:01.407Z,57.06
2023-05-02T17:44:31.642Z,57.35
2023-05-02T17:46:59.402Z,58.11
2023-05-02T17:49:27.351Z,58.30
2023-05-02T17:51:55.427Z,58.44
2023-05-02T17:54:23.606Z,58.75
2023-05-02T17:56:52.496Z,58.94
2023-05-02T17:59:20.861Z,58.88
2023-05-02T18:01:50.611Z,58.81
2023-05-02T18:04:18.643Z,60.08
2023-05-02T18:06:46.457Z,59.97
2023-05-02T18:09:14.480Z,59.77
2023-05-02T18:11:43.057Z,60.59
2023-05-02T18:14:10.939Z,60.54
2023-05-02T18:16:39.358Z,59.11
2023-05-02T18:19:08.395Z,59.17
2023-05-02T18:21:37.693Z,59.45
2023-05-02T18:24:07.104Z,58.93
2023-05-02T18:26:34.980Z,58.68
2023-05-02T18:29:02.823Z,58.41
2023-05-02T18:31:32.227Z,58.86
2023-05-02T18:34:00.099Z,58.56
2023-05-02T18:36:29.433Z,58.37
2023-05-02T18:38:57.474Z,58.49
2023-05-02T18:41:25.325Z,58.22
2023-05-02T18:43:53.324Z,57.79
2023-05-02T18:46:21.417Z,58.39
2023-05-02T18:48:49.439Z,58.24
2023-05-02T18:51:17.502Z,58.30
2023-05-02T18:53:45.369Z,58.30
2023-05-02T18:56:16.751Z,58.26
2023-05-02T18:58:44.544Z,58.68
2023-05-02T19:01:16.949Z,58.82
2023-05-02T19:03:45.113Z,58.87
2023-05-02T19:06:19.502Z,59.10
2023-05-02T19:08:48.650Z,59.43
2023-05-02T19:11:16.505Z,59.40
2023-05-02T19:13:44.276Z,59.81
2023-05-02T19:16:13.679Z,59.94
2023-05-02T19:18:43.570Z,59.68
2023-05-02T19:21:13.146Z,59.77
2023-05-02T19:23:43.066Z,60.80
2023-05-02T19:26:12.819Z,61.14
2023-05-02T19:28:41.470Z,61.01
2023-05-02T19:31:09.978Z,61.58
2023-05-02T19:33:41.674Z,61.75
2023-05-02T19:36:10.672Z,61.63
2023-05-02T19:38:38.421Z,61.98
2023-05-02T19:41:07.967Z,62.69
2023-05-02T19:43:36.175Z,62.58
2023-05-02T19:46:03.950Z,62.43
2023-05-02T19:48:31.763Z,62.62
2023-05-02T19:51:03.680Z,62.48
2023-05-02T19:53:32.440Z,62.06
2023-05-02T19:56:02.162Z,62.30
2023-05-02T19:58:30.006Z,62.04
2023-05-02T20:00:57.883Z,62.53
2023-05-02T20:03:26.130Z,61.92
2023-05-02T20:05:55.554Z,61.86
2023-05-02T20:08:27.840Z,62.55
2023-05-02T20:10:56.332Z,63.00
2023-05-02T20:13:24.389Z,62.79
2023-05-02T20:15:53.647Z,62.68
2023-05-02T20:18:21.520Z,62.56
2023-05-02T20:20:51.273Z,62.73
2023-05-02T20:23:19.135Z,62.94
2023-05-02T20:25:47.164Z,63.66
2023-05-02T20:28:16.092Z,63.69
2023-05-02T20:30:44.369Z,63.53
2023-05-02T20:33:16.229Z,63.57
2023-05-02T20:35:45.762Z,63.54
2023-05-02T20:38:13.612Z,64.42
2023-05-02T20:40:42.904Z,64.40
2023-05-02T20:43:11.967Z,64.49
2023-05-02T20:45:40.273Z,63.53
2023-05-02T20:48:08.200Z,64.31
2023-05-02T20:50:36.414Z,64.50
2023-05-02T20:53:04.766Z,64.77
2023-05-02T20:55:32.634Z,65.94
2023-05-02T20:58:00.423Z,65.47
2023-05-02T21:00:29.086Z,65.80
2023-05-02T21:02:57.051Z,66.29
2023-05-02T21:05:24.916Z,65.39
2023-05-02T21:07:52.668Z,66.29
2023-05-02T21:10:20.448Z,68.00
2023-05-02T21:12:48.257Z,69.43
2023-05-02T21:15:16.174Z,71.10
2023-05-02T21:17:44.076Z,71.51
2023-05-02T21:20:12.745Z,70.52
2023-05-02T21:22:42.082Z,72.63
2023-05-02T21:25:10.284Z,71.55
2023-05-02T21:27:38.127Z,71.74
2023-05-02T21:30:07.465Z,74.52
2023-05-02T21:32:35.365Z,72.30
2023-05-02T21:35:03.879Z,74.39
2023-05-02T21:37:31.872Z,74.17
2023-05-02T21:39:59.926Z,73.70
2023-05-02T21:42:28.146Z,74.18
2023-05-02T21:44:55.981Z,74.38
2023-05-02T21:47:24.002Z,73.33
2023-05-02T21:49:54.185Z,72.81
2023-05-02T21:52:21.984Z,73.39
2023-05-02T21:54:52.464Z,74.33
2023-05-02T21:57:20.246Z,73.98
2023-05-02T21:59:48.325Z,73.91
2023-05-02T22:05:42.526Z,73.77
2023-05-02T22:08:12.613Z,73.01
2023-05-02T22:10:42.641Z,73.22
2023-05-02T22:13:12.696Z,72.14
2023-05-02T22:15:45.608Z,73.21
2023-05-02T22:18:15.037Z,72.50
2023-05-02T22:20:44.507Z,73.73
2023-05-02T22:23:12.709Z,72.69
2023-05-02T22:25:42.727Z,73.18
2023-05-02T22:28:12.334Z,72.89
2023-05-02T22:30:43.023Z,72.83
2023-05-02T22:33:11.184Z,73.64
2023-05-02T22:35:39.361Z,73.71
2023-05-02T22:38:10.353Z,73.16
2023-05-02T22:40:38.123Z,73.67
2023-05-02T22:43:06.002Z,74.07
2023-05-02T22:45:35.299Z,73.85
2023-05-02T22:48:03.423Z,73.58
2023-05-02T22:50:31.425Z,73.95
2023-05-02T22:52:59.903Z,73.02
2023-05-02T22:55:27.772Z,72.37
2023-05-02T22:57:55.940Z,72.21
2023-05-02T23:00:25.108Z,71.42
2023-05-02T23:02:53.084Z,72.46
2023-05-02T23:05:21.598Z,72.63
2023-05-02T23:07:49.667Z,72.85
2023-05-02T23:10:17.529Z,72.73
2023-05-02T23:12:45.594Z,72.38
2023-05-02T23:15:13.559Z,72.46
2023-05-02T23:17:41.867Z,72.99
2023-05-02T23:20:10.780Z,73.04
2023-05-02T23:22:45.782Z,72.59
2023-05-02T23:25:14.864Z,72.57
2023-05-02T23:27:42.878Z,72.56
2023-05-02T23:30:11.673Z,72.75
2023-05-02T23:32:40.282Z,72.62
2023-05-02T23:35:08.640Z,72.22
2023-05-02T23:37:36.765Z,72.62
2023-05-02T23:40:07.424Z,72.26
2023-05-02T23:42:36.163Z,71.86
2023-05-02T23:45:04.983Z,71.96
2023-05-02T23:47:33.041Z,71.64
2023-05-02T23:50:01.882Z,72.11
2023-05-02T23:52:30.095Z,71.77
2023-05-02T23:54:57.950Z,71.54
2023-05-02T23:57:25.802Z,71.97
2023-05-02T23:59:53.775Z,71.45
